Sheldon, Illinois
Current Conditions -  °F | °C
As of 5:35 AM on Friday 31 Oct 2014 (Local Time) from KRZL Reporting Station
Drizzle Drizzle  
Wind Chill: 39°   Ceiling: 4600
Heat Index: 43°   Visibility: 5mi
Dew Point: 43°   Wind: 7mph
Humidity: 100%   Direction: 290°WNW
Pressure: 30.01"   Gusts: NA
Location:  40.77°N, 87.56°W
Report Text: KRZL 311035Z AUTO 29006KT 5SM -DZ SCT015 BKN046 OVC070 06/06 A3001 RMK AO2
Loading
Personal Weather Stations






























Interactive Weather Map
Tropical Storm Tracking
New forecast layout! Learn more

10-Day Weather Forecast

Advertisements
Track Severe Weather on mobile